Time;durP1;ratioP1;P1;durP2;ratioP2;P2;SDS_P1;SDS_P2;PMS_P1;PMS_P2;Temp;Humidity;BMP_temperature;BMP_pressure;BME280_temperature;BME280_humidity;BME280_pressure;Samples;Min_cycle;Max_cycle;Signal;HPM_P1;HPM_P2
2022/01/06 00:02:15;;;;;;;8.37;1.00;;;3.10;99.90;;;;;;5074875;28;20275;-84
2022/01/06 00:04:42;;;;;;;10.10;1.20;;;3.00;99.90;;;;;;5091801;28;20040;-84
2022/01/06 00:07:07;;;;;;;11.17;1.87;;;2.90;99.90;;;;;;5074475;28;20039;-84
2022/01/06 00:09:33;;;;;;;14.30;1.37;;;2.90;99.90;;;;;;5091841;28;20485;-84
2022/01/06 00:11:59;;;;;;;8.57;2.63;;;2.90;99.90;;;;;;5074593;28;20067;-83
2022/01/06 00:14:41;;;;;;;15.90;1.23;;;2.90;99.90;;;;;;5091315;28;20056;-84
2022/01/06 00:17:37;;;;;;;14.93;1.57;;;2.90;99.90;;;;;;5074601;28;20047;-84
2022/01/06 00:23:21;;;;;;;10.93;1.50;;;2.90;99.90;;;;;;5088547;28;20048;-84
2022/01/06 00:25:48;;;;;;;8.83;1.87;;;2.90;99.90;;;;;;5071399;28;20495;-83
2022/01/06 00:28:14;;;;;;;9.87;1.53;;;2.90;99.90;;;;;;5054938;28;20055;-83
2022/01/06 00:30:39;;;;;;;8.77;2.60;;;2.90;99.90;;;;;;5074305;28;20043;-84
2022/01/06 00:33:06;;;;;;;14.30;1.70;;;2.90;99.90;;;;;;5074467;28;20043;-83
2022/01/06 00:35:31;;;;;;;11.30;1.63;;;2.90;99.90;;;;;;5074307;28;20082;-84
2022/01/06 00:37:57;;;;;;;7.47;2.27;;;3.00;99.90;;;;;;5091065;28;20067;-84
2022/01/06 00:40:23;;;;;;;13.77;2.90;;;3.00;99.90;;;;;;5074713;28;20418;-83
2022/01/06 00:42:48;;;;;;;14.83;3.13;;;3.10;99.90;;;;;;5091623;28;20478;-84
2022/01/06 00:45:14;;;;;;;10.07;1.50;;;3.20;99.90;;;;;;5074132;28;20524;-84
2022/01/06 00:47:39;;;;;;;13.80;1.50;;;3.20;99.90;;;;;;5074081;28;20039;-83
2022/01/06 00:50:06;;;;;;;9.27;1.63;;;3.30;99.90;;;;;;5074935;28;20504;-83
2022/01/06 00:52:33;;;;;;;12.93;2.47;;;3.40;99.90;;;;;;5074134;28;20067;-83
2022/01/06 00:54:58;;;;;;;6.80;1.77;;;3.50;99.90;;;;;;5091252;28;20036;-85
2022/01/06 00:57:24;;;;;;;13.30;2.87;;;3.60;99.90;;;;;;5074147;28;20443;-84
2022/01/06 00:59:49;;;;;;;7.00;0.90;;;3.60;99.90;;;;;;5074219;28;20044;-84
2022/01/06 01:02:15;;;;;;;9.50;1.47;;;3.60;99.90;;;;;;5090621;28;20032;-83
2022/01/06 01:04:41;;;;;;;11.43;1.87;;;3.60;99.90;;;;;;5073529;28;20036;-84
2022/01/06 01:07:06;;;;;;;12.40;2.93;;;3.60;99.90;;;;;;5090598;28;20040;-84
2022/01/06 01:09:32;;;;;;;16.10;5.63;;;3.50;99.90;;;;;;5073320;28;20541;-84
2022/01/06 01:12:02;;;;;;;10.20;2.07;;;3.50;99.90;;;;;;5073778;28;20039;-82
2022/01/06 01:14:31;;;;;;;7.67;1.17;;;3.40;99.90;;;;;;5090772;28;20070;-84
2022/01/06 01:17:00;;;;;;;5.67;0.93;;;3.30;99.90;;;;;;5073459;28;20402;-84
2022/01/06 01:19:28;;;;;;;10.50;2.00;;;3.20;99.90;;;;;;5073659;28;20069;-81
2022/01/06 01:21:54;;;;;;;12.47;1.37;;;3.10;99.90;;;;;;5092588;28;20039;-82
2022/01/06 01:24:20;;;;;;;11.63;1.50;;;3.00;99.90;;;;;;5075865;28;20036;-82
2022/01/06 01:26:46;;;;;;;7.87;1.17;;;2.90;99.90;;;;;;5094056;28;20285;-82
2022/01/06 01:29:17;;;;;;;8.77;1.63;;;2.90;99.90;;;;;;5076551;28;20036;-83
2022/01/06 01:31:51;;;;;;;9.13;1.07;;;2.90;99.90;;;;;;5094236;28;20571;-82
2022/01/06 01:34:24;;;;;;;10.07;1.47;;;2.90;99.90;;;;;;5092504;28;20097;-80
2022/01/06 01:36:50;;;;;;;9.47;1.67;;;2.90;99.90;;;;;;5093857;28;20043;-82
2022/01/06 01:39:16;;;;;;;13.90;1.20;;;2.90;99.90;;;;;;5075791;28;20494;-82
2022/01/06 01:41:42;;;;;;;15.60;2.03;;;2.90;99.90;;;;;;5075937;28;20024;-83
2022/01/06 01:44:13;;;;;;;12.40;1.77;;;2.90;99.90;;;;;;5092248;28;20039;-82
2022/01/06 01:46:45;;;;;;;12.43;1.37;;;2.90;99.90;;;;;;5091247;28;20047;-83
2022/01/06 01:51:45;;;;;;;6.93;1.20;;;2.90;99.90;;;;;;5092135;28;20052;-82
2022/01/06 01:54:11;;;;;;;9.70;1.97;;;2.90;99.90;;;;;;5076191;28;20063;-82
2022/01/06 01:56:38;;;;;;;8.37;2.03;;;3.00;99.90;;;;;;5074563;28;20032;-83
2022/01/06 01:59:03;;;;;;;5.57;1.23;;;3.00;99.90;;;;;;5076048;28;20081;-80
2022/01/06 02:01:29;;;;;;;6.00;1.70;;;2.90;99.90;;;;;;5092657;28;20032;-82
2022/01/06 02:03:55;;;;;;;12.37;2.13;;;2.90;99.90;;;;;;5092775;28;20040;-82
2022/01/06 02:06:20;;;;;;;7.80;1.57;;;2.90;99.90;;;;;;5092447;28;20105;-82
2022/01/06 02:08:46;;;;;;;9.23;1.00;;;2.90;99.90;;;;;;5076123;28;20509;-82
2022/01/06 02:11:12;;;;;;;13.07;1.50;;;2.90;99.90;;;;;;5074835;28;20032;-83
2022/01/06 02:13:48;;;;;;;16.00;2.63;;;2.80;99.90;;;;;;5077316;28;20131;-82
2022/01/06 02:16:19;;;;;;;8.17;1.03;;;2.80;99.90;;;;;;5076607;28;20036;-81
2022/01/06 02:18:44;;;;;;;7.80;1.53;;;2.80;99.90;;;;;;5093744;28;20439;-81
2022/01/06 02:21:10;;;;;;;8.47;1.30;;;2.80;99.90;;;;;;5092999;28;20039;-82
2022/01/06 02:23:36;;;;;;;11.70;1.13;;;2.70;99.90;;;;;;5093309;28;20040;-82
2022/01/06 02:26:01;;;;;;;5.63;0.97;;;2.70;99.90;;;;;;5075431;28;20525;-81
2022/01/06 02:28:27;;;;;;;13.80;3.17;;;2.60;99.90;;;;;;5076841;28;20084;-80
2022/01/06 02:30:55;;;;;;;10.37;1.20;;;2.50;99.90;;;;;;5092623;28;20044;-81
2022/01/06 02:33:21;;;;;;;8.60;0.80;;;2.50;99.90;;;;;;5074951;28;20043;-82
2022/01/06 02:35:48;;;;;;;9.40;1.50;;;2.50;99.90;;;;;;5094016;28;20403;-82
2022/01/06 02:38:14;;;;;;;9.53;1.30;;;2.40;99.90;;;;;;5096232;28;20036;-81
2022/01/06 02:40:40;;;;;;;11.40;1.83;;;2.40;99.90;;;;;;5080754;28;20115;-81
2022/01/06 02:43:07;;;;;;;10.20;0.97;;;2.30;99.90;;;;;;5096674;28;20090;-82
2022/01/06 02:45:33;;;;;;;13.13;1.90;;;2.30;99.90;;;;;;5097434;28;20113;-82
2022/01/06 02:48:08;;;;;;;5.73;1.13;;;2.30;99.90;;;;;;5095470;28;20512;-82
2022/01/06 02:50:37;;;;;;;5.40;0.90;;;2.40;99.90;;;;;;5097342;28;20043;-82
2022/01/06 02:53:03;;;;;;;10.80;1.33;;;2.40;99.90;;;;;;5078686;28;20127;-82
2022/01/06 02:55:29;;;;;;;10.30;1.13;;;2.40;99.90;;;;;;5080500;28;20394;-82
2022/01/06 02:57:54;;;;;;;9.03;1.23;;;2.50;99.90;;;;;;5078624;28;20036;-82
2022/01/06 03:00:20;;;;;;;10.23;1.37;;;2.50;99.90;;;;;;5095733;28;20042;-82
2022/01/06 03:02:46;;;;;;;10.00;0.90;;;2.60;99.90;;;;;;5095152;28;20040;-82
2022/01/06 03:05:13;;;;;;;7.90;1.10;;;2.70;99.90;;;;;;5095513;28;20122;-82
2022/01/06 03:07:39;;;;;;;13.97;1.83;;;2.60;99.90;;;;;;5078373;28;20036;-81
2022/01/06 03:10:08;;;;;;;12.57;1.30;;;2.60;99.90;;;;;;5079187;28;20036;-82
2022/01/06 03:12:39;;;;;;;9.30;1.30;;;2.60;99.90;;;;;;5096479;28;20047;-82
2022/01/06 03:15:15;;;;;;;7.67;1.30;;;2.60;99.90;;;;;;5078389;28;20521;-82
2022/01/06 03:17:43;;;;;;;6.23;1.13;;;2.50;99.90;;;;;;5096163;28;20122;-81
2022/01/06 03:20:11;;;;;;;9.80;1.20;;;2.50;99.90;;;;;;5078180;28;20044;-82
2022/01/06 03:22:36;;;;;;;8.03;1.57;;;2.40;99.90;;;;;;5096450;28;20040;-81
2022/01/06 03:25:03;;;;;;;11.97;1.83;;;2.30;99.90;;;;;;5095613;28;20089;-82
2022/01/06 03:27:30;;;;;;;13.80;1.70;;;2.20;99.90;;;;;;5078979;28;20169;-82
2022/01/06 03:29:56;;;;;;;6.73;0.90;;;2.10;99.90;;;;;;5094784;28;20040;-81
2022/01/06 03:32:21;;;;;;;12.63;1.80;;;2.10;99.90;;;;;;5078250;28;20047;-82
2022/01/06 03:34:47;;;;;;;8.33;1.17;;;2.10;99.90;;;;;;5094227;28;20317;-82
2022/01/06 03:37:14;;;;;;;10.67;1.20;;;2.00;99.90;;;;;;5078649;28;20043;-82
2022/01/06 03:39:42;;;;;;;6.07;1.43;;;2.00;99.90;;;;;;5094973;28;20036;-82
2022/01/06 03:42:08;;;;;;;10.20;2.90;;;1.90;99.90;;;;;;5078173;28;20456;-82
2022/01/06 03:44:34;;;;;;;9.50;0.80;;;1.90;99.90;;;;;;5094810;28;20040;-81
2022/01/06 03:47:00;;;;;;;8.90;0.90;;;1.80;99.90;;;;;;5077450;28;20056;-82
2022/01/06 03:49:26;;;;;;;5.83;0.83;;;1.70;99.90;;;;;;5077995;28;20078;-82
2022/01/06 03:51:51;;;;;;;15.63;1.07;;;1.60;99.90;;;;;;5077471;28;20040;-83
2022/01/06 03:54:17;;;;;;;8.33;1.27;;;1.50;99.90;;;;;;5095112;28;20563;-82
2022/01/06 03:56:43;;;;;;;9.07;0.57;;;1.40;99.90;;;;;;5076277;28;20024;-80
2022/01/06 03:59:08;;;;;;;18.83;1.23;;;1.40;99.90;;;;;;5077889;28;20094;-82
2022/01/06 04:01:34;;;;;;;7.73;1.20;;;1.40;99.90;;;;;;5093182;28;20091;-82
2022/01/06 04:04:00;;;;;;;8.20;1.60;;;1.20;99.90;;;;;;5077651;28;20127;-82
2022/01/06 04:06:26;;;;;;;10.60;1.20;;;1.20;99.90;;;;;;5093320;28;20058;-82
2022/01/06 04:08:52;;;;;;;9.13;1.33;;;1.20;99.90;;;;;;5095254;28;20040;-82
2022/01/06 04:11:17;;;;;;;8.07;3.03;;;1.20;99.90;;;;;;5093494;28;20043;-80
2022/01/06 04:13:43;;;;;;;6.37;1.30;;;1.10;99.90;;;;;;5094773;28;20123;-82
2022/01/06 04:16:09;;;;;;;12.83;1.60;;;1.10;99.90;;;;;;5093009;28;20384;-82
2022/01/06 04:18:35;;;;;;;7.73;1.37;;;1.00;99.90;;;;;;5096456;28;20040;-80
2022/01/06 04:21:01;;;;;;;14.73;1.10;;;1.00;99.90;;;;;;5094885;28;20046;-80
2022/01/06 04:23:27;;;;;;;7.77;1.13;;;0.90;99.90;;;;;;5079631;28;20075;-80
2022/01/06 04:25:52;;;;;;;15.37;2.03;;;0.90;99.90;;;;;;5077995;28;20040;-80
2022/01/06 04:28:18;;;;;;;8.40;1.13;;;0.80;99.90;;;;;;5079035;28;20059;-80
2022/01/06 04:30:43;;;;;;;8.50;1.13;;;0.70;99.90;;;;;;5095370;28;20042;-80
2022/01/06 04:33:09;;;;;;;5.03;0.87;;;0.70;99.90;;;;;;5095131;28;20043;-80
2022/01/06 04:35:35;;;;;;;7.67;1.40;;;0.60;99.90;;;;;;5095243;28;20667;-78
2022/01/06 04:38:00;;;;;;;8.50;1.20;;;0.50;99.90;;;;;;5079115;28;20119;-80
2022/01/06 04:40:26;;;;;;;7.50;1.87;;;0.50;99.90;;;;;;5078965;28;20119;-80
2022/01/06 04:42:51;;;;;;;9.70;1.40;;;0.40;99.90;;;;;;5096153;28;20089;-80
2022/01/06 04:45:17;;;;;;;7.73;1.87;;;0.40;99.90;;;;;;5097793;28;20044;-80
2022/01/06 04:47:43;;;;;;;12.77;1.37;;;0.30;99.90;;;;;;5080141;28;20089;-79
2022/01/06 04:50:09;;;;;;;14.47;2.30;;;0.30;99.90;;;;;;5098490;28;20558;-80
2022/01/06 04:52:34;;;;;;;11.23;1.43;;;0.30;99.90;;;;;;5097344;28;20075;-80
2022/01/06 04:55:00;;;;;;;7.53;1.27;;;0.20;99.90;;;;;;5081739;28;20036;-80
2022/01/06 04:57:25;;;;;;;12.33;2.33;;;0.20;99.90;;;;;;5099964;28;20044;-79
2022/01/06 04:59:51;;;;;;;11.47;1.53;;;0.20;99.90;;;;;;5081581;28;20089;-80
2022/01/06 05:02:17;;;;;;;15.60;2.90;;;0.30;99.90;;;;;;5099676;28;20036;-80
2022/01/06 05:04:42;;;;;;;18.67;2.83;;;0.30;99.90;;;;;;5099382;28;20032;-80
2022/01/06 05:07:08;;;;;;;11.37;1.50;;;0.30;99.90;;;;;;5099323;28;20055;-80
2022/01/06 05:09:33;;;;;;;13.57;1.67;;;0.40;99.90;;;;;;5082662;28;20367;-80
2022/01/06 05:11:59;;;;;;;13.63;1.73;;;0.40;99.90;;;;;;5083157;28;20066;-80
2022/01/06 05:14:25;;;;;;;13.67;2.60;;;0.40;99.90;;;;;;5082939;28;20059;-80
2022/01/06 05:16:50;;;;;;;11.47;2.47;;;0.40;99.90;;;;;;5099909;28;20418;-79
2022/01/06 05:19:16;;;;;;;15.23;2.73;;;0.40;99.90;;;;;;5101109;28;20509;-80
2022/01/06 05:21:42;;;;;;;20.23;1.77;;;0.50;99.90;;;;;;5100847;28;20032;-80
2022/01/06 05:24:14;;;;;;;15.53;2.27;;;0.60;99.90;;;;;;5083290;28;20506;-80
2022/01/06 05:26:40;;;;;;;13.87;2.30;;;0.80;99.90;;;;;;5083314;28;20123;-80
2022/01/06 05:29:08;;;;;;;10.30;1.70;;;1.00;99.90;;;;;;5099539;28;20047;-80
2022/01/06 05:31:34;;;;;;;9.13;2.17;;;1.10;99.90;;;;;;5098695;28;20043;-80
2022/01/06 05:33:59;;;;;;;9.00;1.80;;;1.20;99.90;;;;;;5082832;28;20040;-79
2022/01/06 05:36:25;;;;;;;11.27;1.40;;;1.40;99.90;;;;;;5083229;28;20119;-80
2022/01/06 05:38:50;;;;;;;7.83;1.50;;;1.50;99.90;;;;;;5100144;28;20043;-80
2022/01/06 05:41:16;;;;;;;12.70;2.13;;;1.50;99.90;;;;;;5081641;28;20143;-80
2022/01/06 05:43:41;;;;;;;11.10;1.43;;;1.60;99.90;;;;;;5098999;28;20032;-80
2022/01/06 05:46:07;;;;;;;10.50;1.70;;;1.60;99.90;;;;;;5098008;28;20051;-80
2022/01/06 05:48:33;;;;;;;6.83;1.93;;;1.70;99.90;;;;;;5080890;28;20051;-80
2022/01/06 05:50:58;;;;;;;18.30;2.20;;;1.70;99.90;;;;;;5097882;28;20048;-80
2022/01/06 05:53:24;;;;;;;18.43;2.97;;;1.70;99.90;;;;;;5095772;28;20038;-79
2022/01/06 05:55:49;;;;;;;11.70;3.20;;;1.60;99.90;;;;;;5097157;28;20109;-80
2022/01/06 05:58:15;;;;;;;7.07;2.10;;;1.60;99.90;;;;;;5079578;28;20096;-80
2022/01/06 06:00:42;;;;;;;12.87;1.70;;;1.60;99.90;;;;;;5096158;28;20503;-80
2022/01/06 06:03:08;;;;;;;13.23;1.20;;;1.70;99.90;;;;;;5079312;28;20367;-80
2022/01/06 06:05:33;;;;;;;10.87;2.23;;;1.70;99.90;;;;;;5078954;28;20044;-80
2022/01/06 06:07:59;;;;;;;13.27;1.40;;;1.70;99.90;;;;;;5078556;28;20032;-80
2022/01/06 06:10:25;;;;;;;6.70;1.50;;;1.70;99.90;;;;;;5079909;28;20071;-80
2022/01/06 06:12:52;;;;;;;15.73;1.93;;;1.70;99.90;;;;;;5083258;28;20430;-80
2022/01/06 06:15:20;;;;;;;9.47;2.60;;;1.70;99.90;;;;;;5100085;28;20036;-80
2022/01/06 06:17:45;;;;;;;11.47;1.70;;;1.60;99.90;;;;;;5099857;28;20127;-80
2022/01/06 06:20:11;;;;;;;13.40;3.27;;;1.60;99.90;;;;;;5100220;28;20482;-80
2022/01/06 06:22:37;;;;;;;8.23;1.23;;;1.50;99.90;;;;;;5100810;28;20076;-79
2022/01/06 06:25:04;;;;;;;10.83;1.83;;;1.40;99.90;;;;;;5082737;28;20036;-80
2022/01/06 06:27:29;;;;;;;11.30;3.23;;;1.40;99.90;;;;;;5100345;28;20044;-79
2022/01/06 06:29:55;;;;;;;22.43;3.03;;;1.40;99.90;;;;;;5100349;28;20134;-80
2022/01/06 06:32:20;;;;;;;13.17;2.43;;;1.30;99.90;;;;;;5099885;28;20043;-80
2022/01/06 06:34:46;;;;;;;9.57;1.97;;;1.30;99.90;;;;;;5083817;28;20068;-80
2022/01/06 06:37:11;;;;;;;23.73;3.87;;;1.30;99.90;;;;;;5083968;28;20040;-81
2022/01/06 06:39:37;;;;;;;6.87;0.77;;;1.30;99.90;;;;;;5083058;28;20028;-81
2022/01/06 06:42:03;;;;;;;20.60;2.27;;;1.30;99.90;;;;;;5100257;28;20081;-81
2022/01/06 06:44:28;;;;;;;21.97;4.57;;;1.30;99.90;;;;;;5100467;28;20127;-81
2022/01/06 06:46:54;;;;;;;9.40;2.30;;;1.30;99.90;;;;;;5083655;28;20055;-80
2022/01/06 06:49:20;;;;;;;9.10;1.77;;;1.30;99.90;;;;;;5099857;28;20044;-80
2022/01/06 06:51:45;;;;;;;12.33;1.83;;;1.30;99.90;;;;;;5100258;28;20046;-81
2022/01/06 06:54:13;;;;;;;15.57;1.73;;;1.30;99.90;;;;;;5082158;28;20048;-80
2022/01/06 06:56:40;;;;;;;12.00;1.57;;;1.30;99.90;;;;;;5098289;28;20064;-80
2022/01/06 06:59:06;;;;;;;13.57;3.60;;;1.20;99.90;;;;;;5098617;28;20055;-81
2022/01/06 07:01:31;;;;;;;4.93;1.13;;;1.20;99.90;;;;;;5098670;28;20039;-80
2022/01/06 07:03:57;;;;;;;7.47;2.00;;;1.20;99.90;;;;;;5082373;28;20070;-80
2022/01/06 07:06:22;;;;;;;13.83;2.13;;;1.30;99.90;;;;;;5098167;28;20048;-80
2022/01/06 07:08:48;;;;;;;11.20;2.43;;;1.20;99.90;;;;;;5097788;28;20047;-81
2022/01/06 07:11:13;;;;;;;9.50;1.77;;;1.20;99.90;;;;;;5080610;28;20036;-81
2022/01/06 07:13:39;;;;;;;11.87;1.77;;;1.20;99.90;;;;;;5081352;28;20062;-80
2022/01/06 07:16:05;;;;;;;15.10;2.60;;;1.20;99.90;;;;;;5080511;28;20061;-81
2022/01/06 07:18:30;;;;;;;20.77;2.37;;;1.30;99.90;;;;;;5081388;28;20039;-81
2022/01/06 07:20:57;;;;;;;15.70;1.80;;;1.20;99.90;;;;;;5098281;28;20036;-81
2022/01/06 07:23:22;;;;;;;8.80;1.10;;;1.20;99.90;;;;;;5081156;28;20486;-81
2022/01/06 07:25:48;;;;;;;15.90;2.40;;;1.20;99.90;;;;;;5097293;28;20142;-81
2022/01/06 07:28:14;;;;;;;24.57;2.70;;;1.10;99.90;;;;;;5082125;28;20062;-79
2022/01/06 07:30:39;;;;;;;10.07;2.47;;;1.00;99.90;;;;;;5081082;28;20048;-81
2022/01/06 07:33:05;;;;;;;13.63;2.23;;;0.90;99.90;;;;;;5098479;28;20028;-81
2022/01/06 07:35:30;;;;;;;14.60;4.20;;;0.80;99.90;;;;;;5098334;28;20229;-80
2022/01/06 07:37:56;;;;;;;17.87;2.43;;;0.70;99.90;;;;;;5082763;28;20414;-81
2022/01/06 07:40:22;;;;;;;13.20;2.07;;;0.70;99.90;;;;;;5099081;28;20085;-80
2022/01/06 07:42:49;;;;;;;13.07;3.33;;;0.60;99.90;;;;;;5083474;28;20040;-80
2022/01/06 07:45:15;;;;;;;14.00;2.07;;;0.50;99.90;;;;;;5099573;28;20044;-79
2022/01/06 07:48:02;;;;;;;11.50;1.77;;;0.50;99.90;;;;;;5099957;28;20036;-80
2022/01/06 07:50:35;;;;;;;15.67;4.27;;;0.40;99.90;;;;;;5100954;28;20487;-80
2022/01/06 07:53:01;;;;;;;11.27;2.40;;;0.40;99.90;;;;;;5099795;28;20066;-80
2022/01/06 07:55:27;;;;;;;14.67;2.80;;;0.40;99.90;;;;;;5084436;28;20097;-80
2022/01/06 07:57:54;;;;;;;11.77;4.47;;;0.40;99.90;;;;;;5099896;28;20099;-80
2022/01/06 08:00:20;;;;;;;16.00;5.13;;;0.30;99.90;;;;;;5100606;28;20051;-79
2022/01/06 08:02:46;;;;;;;13.73;3.03;;;0.40;99.90;;;;;;5046297;28;1052208;-80
2022/01/06 08:05:14;;;;;;;8.20;1.97;;;0.30;99.90;;;;;;5085188;28;20050;-80
2022/01/06 08:07:40;;;;;;;9.70;1.70;;;0.20;99.90;;;;;;5099153;28;20032;-80
2022/01/06 08:10:07;;;;;;;10.93;2.57;;;0.10;99.90;;;;;;5098397;28;20038;-80
2022/01/06 08:12:33;;;;;;;13.20;1.30;;;0.20;99.90;;;;;;5099751;28;20075;-80
2022/01/06 08:14:58;;;;;;;15.83;3.27;;;0.10;99.90;;;;;;5099065;28;20039;-79
2022/01/06 08:17:24;;;;;;;5.63;1.53;;;0.10;99.90;;;;;;5100620;28;20047;-79
2022/01/06 08:19:51;;;;;;;11.27;1.47;;;0.10;99.90;;;;;;5102551;28;20063;-80
2022/01/06 08:22:18;;;;;;;19.13;3.03;;;0.10;99.90;;;;;;5083516;28;20055;-80
2022/01/06 08:24:43;;;;;;;24.50;4.23;;;0.10;99.90;;;;;;5082858;28;20043;-80
2022/01/06 08:27:09;;;;;;;9.50;1.83;;;0.30;99.90;;;;;;5101034;28;20123;-80
2022/01/06 08:29:36;;;;;;;5.83;2.33;;;0.40;99.90;;;;;;5083532;28;20035;-80
2022/01/06 08:32:02;;;;;;;14.23;1.33;;;0.40;99.90;;;;;;5102615;28;20043;-80
2022/01/06 08:34:28;;;;;;;12.40;2.50;;;0.40;99.90;;;;;;5102330;28;20040;-80
2022/01/06 08:36:54;;;;;;;10.60;2.60;;;0.40;99.90;;;;;;5103161;28;20042;-80
2022/01/06 08:39:20;;;;;;;16.50;4.80;;;0.40;99.90;;;;;;5102325;28;20108;-80
2022/01/06 08:41:46;;;;;;;19.70;4.90;;;0.40;99.90;;;;;;5100996;28;20036;-80
2022/01/06 08:44:12;;;;;;;13.83;3.90;;;0.50;99.90;;;;;;5102923;28;20509;-80
2022/01/06 08:46:37;;;;;;;9.77;3.03;;;0.50;99.90;;;;;;5102315;28;20032;-80
2022/01/06 08:49:06;;;;;;;15.33;3.53;;;0.50;99.90;;;;;;5086739;28;20036;-80
2022/01/06 08:51:32;;;;;;;13.57;4.30;;;0.60;99.90;;;;;;5102617;28;20032;-80
2022/01/06 08:53:57;;;;;;;10.50;2.73;;;0.60;99.90;;;;;;5103372;28;20040;-80
2022/01/06 08:56:23;;;;;;;15.83;2.03;;;0.60;99.90;;;;;;5105442;28;20024;-79
2022/01/06 08:58:49;;;;;;;13.57;2.20;;;0.70;99.90;;;;;;5112218;28;20111;-79
2022/01/06 09:01:15;;;;;;;9.37;2.17;;;0.70;99.90;;;;;;5112765;28;20585;-79
2022/01/06 09:03:40;;;;;;;14.13;1.80;;;0.80;99.90;;;;;;5113523;28;20051;-79
2022/01/06 09:06:06;;;;;;;7.43;1.97;;;0.80;99.90;;;;;;5112382;28;20031;-80
2022/01/06 09:08:32;;;;;;;12.50;1.97;;;0.80;99.90;;;;;;5111661;28;20047;-80
2022/01/06 09:10:57;;;;;;;38.40;14.47;;;0.90;99.90;;;;;;5112867;28;20051;-80
2022/01/06 09:13:23;;;;;;;95.77;42.90;;;0.80;99.90;;;;;;5095224;28;20104;-80
2022/01/06 09:15:49;;;;;;;55.40;22.87;;;1.10;99.90;;;;;;5094873;28;20099;-80
2022/01/06 09:18:14;;;;;;;22.40;6.80;;;1.10;99.90;;;;;;5102187;28;20043;-80
2022/01/06 09:20:40;;;;;;;21.83;10.83;;;1.20;99.90;;;;;;5100897;28;20032;-80
2022/01/06 09:23:06;;;;;;;21.20;2.60;;;1.20;99.90;;;;;;5101837;28;20031;-80
2022/01/06 09:25:32;;;;;;;13.10;1.97;;;1.30;99.90;;;;;;5100550;28;20079;-80
2022/01/06 09:27:57;;;;;;;17.67;5.63;;;1.30;99.90;;;;;;5101432;28;20036;-80
2022/01/06 09:30:26;;;;;;;11.03;2.13;;;1.30;99.90;;;;;;5101985;28;20067;-81
2022/01/06 09:32:53;;;;;;;96.53;45.07;;;1.40;99.90;;;;;;5100741;28;20479;-81
2022/01/06 09:35:20;;;;;;;252.03;129.57;;;1.50;99.90;;;;;;5100923;28;20044;-79
2022/01/06 09:37:46;;;;;;;461.73;307.60;;;1.60;99.90;;;;;;5101526;28;20044;-79
2022/01/06 09:40:12;;;;;;;31.37;15.37;;;1.70;99.90;;;;;;5100121;28;20085;-79
2022/01/06 09:42:40;;;;;;;10.97;2.37;;;1.80;99.90;;;;;;5084292;28;20486;-80
2022/01/06 09:45:06;;;;;;;9.60;2.33;;;2.10;99.90;;;;;;5099325;28;20082;-80
2022/01/06 09:47:32;;;;;;;8.60;1.47;;;2.30;99.90;;;;;;5096154;28;20043;-81
2022/01/06 09:49:57;;;;;;;13.73;2.10;;;2.60;99.90;;;;;;5077771;28;20599;-81
2022/01/06 09:52:23;;;;;;;13.87;2.60;;;2.70;99.90;;;;;;5097094;28;20036;-80
2022/01/06 09:54:49;;;;;;;9.00;1.40;;;2.90;99.90;;;;;;5099393;28;20100;-80
2022/01/06 09:57:15;;;;;;;12.23;2.87;;;3.00;99.90;;;;;;5097889;28;20075;-80
2022/01/06 09:59:43;;;;;;;11.57;1.63;;;3.10;99.90;;;;;;5098973;28;20043;-80
2022/01/06 10:02:16;;;;;;;9.77;1.40;;;3.10;99.90;;;;;;5082566;28;20038;-80
2022/01/06 10:04:43;;;;;;;11.57;1.67;;;3.10;99.90;;;;;;5098036;28;20051;-81
2022/01/06 10:07:10;;;;;;;11.23;2.83;;;3.10;99.90;;;;;;5098455;28;20051;-81
2022/01/06 10:09:38;;;;;;;13.93;1.77;;;3.20;99.90;;;;;;5080629;28;20110;-81
2022/01/06 10:12:11;;;;;;;10.20;1.67;;;3.10;99.90;;;;;;5095899;28;20096;-81
2022/01/06 10:14:46;;;;;;;13.17;2.17;;;3.20;99.90;;;;;;5079927;28;20463;-81
2022/01/06 10:17:15;;;;;;;19.73;2.15;;;3.20;99.90;;;;;;5093045;28;20044;-83
2022/01/06 10:19:43;;;;;;;9.87;1.53;;;3.20;99.90;;;;;;5073596;28;20097;-83
2022/01/06 10:22:18;;;;;;;9.17;1.60;;;3.10;99.90;;;;;;5090755;28;20406;-85
2022/01/06 10:24:45;;;;;;;7.47;1.43;;;3.20;99.90;;;;;;5073824;28;20143;-83
2022/01/06 10:27:16;;;;;;;10.20;1.83;;;3.20;99.90;;;;;;5089545;28;20043;-84
2022/01/06 10:29:45;;;;;;;10.60;2.03;;;3.20;99.90;;;;;;5073424;28;20040;-84
2022/01/06 10:32:13;;;;;;;8.93;2.07;;;3.30;99.90;;;;;;5090181;28;20453;-83
2022/01/06 10:34:42;;;;;;;16.27;2.60;;;3.40;99.90;;;;;;5090631;28;20491;-84
2022/01/06 10:37:21;;;;;;;17.53;2.83;;;3.50;99.90;;;;;;5089900;28;20043;-85
2022/01/06 10:39:48;;;;;;;13.50;1.90;;;3.70;99.90;;;;;;5089687;28;20036;-84
2022/01/06 10:42:14;;;;;;;7.88;1.70;;;3.90;99.90;;;;;;5089378;28;20032;-84
2022/01/06 10:44:56;;;;;;;12.88;3.05;;;4.10;99.90;;;;;;5090100;28;20494;-84
2022/01/06 10:47:33;;;;;;;15.23;2.53;;;4.30;99.90;;;;;;5073318;28;20133;-84
2022/01/06 10:50:17;;;;;;;15.93;2.85;;;4.60;99.90;;;;;;5090084;28;20039;-84
2022/01/06 10:52:46;;;;;;;8.63;2.05;;;4.80;99.90;;;;;;5090230;28;20237;-85
2022/01/06 10:55:18;;;;;;;7.68;2.53;;;5.00;99.90;;;;;;5089690;28;20035;-84
2022/01/06 10:57:52;;;;;;;12.15;1.65;;;5.10;99.90;;;;;;5091506;28;20047;-84
2022/01/06 11:00:19;;;;;;;8.73;1.73;;;5.10;99.90;;;;;;5093534;28;20067;-84
2022/01/06 11:02:44;;;;;;;23.05;3.00;;;5.20;99.90;;;;;;5093370;28;20055;-84
2022/01/06 11:05:10;;;;;;;11.30;2.83;;;5.30;99.90;;;;;;5093484;28;20040;-82
2022/01/06 11:07:36;;;;;;;12.38;1.85;;;5.30;99.90;;;;;;5093307;28;20076;-82
2022/01/06 11:10:13;;;;;;;13.65;1.48;;;5.40;99.90;;;;;;5091707;28;20094;-81
2022/01/06 11:12:39;;;;;;;13.38;1.77;;;5.60;99.90;;;;;;5093300;28;20458;-84
2022/01/06 11:15:05;;;;;;;9.57;1.63;;;5.70;99.90;;;;;;5092768;28;20089;-85
2022/01/06 11:17:31;;;;;;;8.32;1.70;;;5.90;99.90;;;;;;5092241;28;20075;-84
2022/01/06 11:19:56;;;;;;;16.77;2.00;;;6.10;99.90;;;;;;5075076;28;20040;-84
2022/01/06 11:22:26;;;;;;;12.70;2.15;;;6.30;99.90;;;;;;5074855;28;20028;-83
2022/01/06 11:24:57;;;;;;;15.40;1.98;;;6.40;99.90;;;;;;5074304;28;20036;-85
2022/01/06 11:27:36;;;;;;;10.65;2.53;;;6.50;99.90;;;;;;5092974;28;20047;-85
2022/01/06 11:30:11;;;;;;;13.43;3.15;;;6.50;99.90;;;;;;5075882;28;20362;-85
2022/01/06 11:32:37;;;;;;;8.90;1.80;;;6.60;99.90;;;;;;5076608;28;20039;-84
2022/01/06 11:35:08;;;;;;;13.20;2.83;;;6.70;99.90;;;;;;5092801;28;20035;-84
2022/01/06 11:37:43;;;;;;;10.40;2.17;;;6.80;99.90;;;;;;5092685;28;20115;-82
2022/01/06 11:40:10;;;;;;;20.58;7.07;;;7.00;99.90;;;;;;5092849;28;20119;-82
2022/01/06 11:42:35;;;;;;;12.85;3.08;;;7.10;99.90;;;;;;5075578;28;20093;-82
2022/01/06 11:45:03;;;;;;;8.30;1.58;;;7.20;99.90;;;;;;5075750;28;20040;-82
2022/01/06 11:47:36;;;;;;;8.98;2.90;;;7.30;99.90;;;;;;5092639;28;20058;-80
2022/01/06 11:50:13;;;;;;;18.92;1.90;;;7.40;99.90;;;;;;5075924;28;20222;-82
2022/01/06 11:53:00;;;;;;;8.55;1.60;;;7.50;99.90;;;;;;5075501;28;20051;-81
2022/01/06 11:55:33;;;;;;;8.73;1.77;;;7.50;99.90;;;;;;5092395;28;20150;-82
2022/01/06 11:58:22;;;;;;;11.63;2.40;;;7.60;99.90;;;;;;5092641;28;20437;-83
2022/01/06 12:00:55;;;;;;;11.27;1.88;;;7.80;99.90;;;;;;5075422;28;20119;-82
2022/01/06 12:03:21;;;;;;;8.25;2.00;;;7.90;99.90;;;;;;5091729;28;20043;-83
2022/01/06 12:05:51;;;;;;;10.88;3.22;;;8.00;99.90;;;;;;5074831;28;20063;-83
2022/01/06 12:08:17;;;;;;;7.15;1.85;;;8.10;99.90;;;;;;5091091;28;20127;-82
2022/01/06 12:10:48;;;;;;;8.70;2.25;;;8.30;99.90;;;;;;5092031;28;20044;-83
2022/01/06 12:13:15;;;;;;;10.43;1.45;;;8.40;99.90;;;;;;5092216;28;20042;-83
2022/01/06 12:15:49;;;;;;;7.78;1.20;;;8.60;99.90;;;;;;5092105;28;20118;-83
2022/01/06 12:18:27;;;;;;;12.75;2.20;;;8.80;99.90;;;;;;5075278;28;20036;-83
2022/01/06 12:20:55;;;;;;;11.60;2.25;;;8.90;99.90;;;;;;5091762;28;20043;-83
2022/01/06 12:23:21;;;;;;;6.53;1.60;;;8.90;99.90;;;;;;5076088;28;20088;-82
2022/01/06 12:26:01;;;;;;;9.13;2.00;;;9.00;99.90;;;;;;5075729;28;20082;-81
2022/01/06 12:28:29;;;;;;;10.73;2.83;;;9.10;99.90;;;;;;5092531;28;20044;-80
2022/01/06 12:31:00;;;;;;;11.77;2.33;;;9.10;99.90;;;;;;5075594;28;20068;-80
2022/01/06 12:33:27;;;;;;;13.05;2.28;;;9.10;99.90;;;;;;5075392;28;20044;-82
2022/01/06 12:35:55;;;;;;;11.82;1.08;;;9.00;99.90;;;;;;5092111;28;20043;-82
2022/01/06 12:38:27;;;;;;;14.15;1.65;;;9.00;99.90;;;;;;5092046;28;20028;-81
2022/01/06 12:40:53;;;;;;;7.55;1.65;;;8.90;99.90;;;;;;5076088;28;20092;-81
2022/01/06 12:43:32;;;;;;;8.80;1.63;;;8.90;99.90;;;;;;5075345;28;20040;-82
2022/01/06 12:46:11;;;;;;;7.47;1.40;;;8.70;99.90;;;;;;5092404;28;20040;-79
2022/01/06 12:48:49;;;;;;;14.38;1.92;;;8.50;99.90;;;;;;5092186;28;20118;-82
2022/01/06 12:51:22;;;;;;;11.05;1.92;;;8.50;99.90;;;;;;5074468;28;20114;-81
2022/01/06 12:53:50;;;;;;;14.13;1.40;;;8.50;99.90;;;;;;5086677;28;20451;-81
2022/01/06 12:56:26;;;;;;;8.00;2.00;;;8.50;99.90;;;;;;5091541;28;20141;-82
2022/01/06 12:58:54;;;;;;;11.48;2.03;;;8.70;99.90;;;;;;5091906;28;20074;-82